createdAt,value
2022-10-04T00:00:59.668Z,93.29
2022-10-04T00:01:59.990Z,92.79
2022-10-04T00:03:00.065Z,92.99
2022-10-04T00:04:00.191Z,93.50
2022-10-04T00:05:00.354Z,93.19
2022-10-04T00:06:00.529Z,93.70
2022-10-04T00:07:00.797Z,93.60
2022-10-04T00:08:00.908Z,93.40
2022-10-04T00:09:01.052Z,93.40
2022-10-04T00:10:01.215Z,93.60
2022-10-04T00:11:01.408Z,93.50
2022-10-04T00:12:01.592Z,93.29
2022-10-04T00:13:01.862Z,93.19
2022-10-04T00:14:01.861Z,93.50
2022-10-04T00:15:02.039Z,93.70
2022-10-04T00:16:02.197Z,93.70
2022-10-04T00:17:02.316Z,93.60
2022-10-04T00:18:02.618Z,93.60
2022-10-04T00:19:02.624Z,93.29
2022-10-04T00:20:02.784Z,93.40
2022-10-04T00:21:02.944Z,93.70
2022-10-04T00:22:03.095Z,93.60
2022-10-04T00:23:03.311Z,92.89
2022-10-04T00:24:03.433Z,93.09
2022-10-04T00:25:03.571Z,92.68
2022-10-04T00:26:03.711Z,93.40
2022-10-04T00:27:03.859Z,93.60
2022-10-04T00:28:04.328Z,92.99
2022-10-04T00:29:04.168Z,92.89
2022-10-04T00:30:04.313Z,92.99
2022-10-04T00:31:04.542Z,92.79
2022-10-04T00:32:04.613Z,92.89
2022-10-04T00:33:04.972Z,93.29
2022-10-04T00:34:04.905Z,92.89
2022-10-04T00:35:05.049Z,92.48
2022-10-04T00:36:05.187Z,92.79
2022-10-04T00:37:05.351Z,93.40
2022-10-04T00:38:05.621Z,92.68
2022-10-04T00:39:05.643Z,92.99
2022-10-04T00:40:05.802Z,93.40
2022-10-04T00:41:05.938Z,93.40
2022-10-04T00:42:06.082Z,92.79
2022-10-04T00:43:06.288Z,92.79
2022-10-04T00:44:06.373Z,92.68
2022-10-04T00:45:06.524Z,92.79
2022-10-04T00:46:06.768Z,93.09
2022-10-04T00:47:06.805Z,93.09
2022-10-04T00:48:06.975Z,92.99
2022-10-04T00:49:07.233Z,93.09
2022-10-04T00:50:07.214Z,92.68
2022-10-04T00:51:07.356Z,92.99
2022-10-04T00:52:07.482Z,92.79
2022-10-04T00:53:07.624Z,92.89
2022-10-04T00:54:07.793Z,92.89
2022-10-04T00:55:07.905Z,93.19
2022-10-04T00:56:08.049Z,93.40
2022-10-04T00:57:08.201Z,93.70
2022-10-04T00:58:08.376Z,93.50
2022-10-04T00:59:08.736Z,93.50
2022-10-04T01:00:08.725Z,93.29
2022-10-04T01:01:09.066Z,92.99
2022-10-04T01:02:09.168Z,93.40
2022-10-04T01:03:09.233Z,93.29
2022-10-04T01:04:09.431Z,93.50
2022-10-04T01:05:09.592Z,93.70
2022-10-04T01:06:09.731Z,93.70
2022-10-04T01:07:09.895Z,93.50
2022-10-04T01:08:10.056Z,93.70
2022-10-04T01:09:10.296Z,93.40
2022-10-04T01:10:10.402Z,93.70
2022-10-04T01:11:10.594Z,93.40
2022-10-04T01:12:10.741Z,93.50
2022-10-04T01:13:10.911Z,93.50
2022-10-04T01:14:11.123Z,93.40
2022-10-04T01:15:11.410Z,93.70
2022-10-04T01:16:11.542Z,93.70
2022-10-04T01:17:11.563Z,93.70
2022-10-04T01:18:11.736Z,93.50
2022-10-04T01:19:11.904Z,93.60
2022-10-04T01:20:12.160Z,93.60
2022-10-04T01:21:12.253Z,93.60
2022-10-04T01:22:12.431Z,93.60
2022-10-04T01:23:12.592Z,93.40
2022-10-04T01:24:12.752Z,92.79
2022-10-04T01:25:12.951Z,92.89
2022-10-04T01:26:13.082Z,92.48
2022-10-04T01:27:13.258Z,93.09
2022-10-04T01:28:13.501Z,92.99
2022-10-04T01:29:13.586Z,93.09
2022-10-04T01:30:13.866Z,92.99
2022-10-04T01:31:14.004Z,93.09
2022-10-04T01:32:14.098Z,93.19
2022-10-04T01:33:14.237Z,93.40
2022-10-04T01:34:14.396Z,92.38
2022-10-04T01:35:14.591Z,92.42
2022-10-04T01:36:14.722Z,93.54
2022-10-04T01:37:14.903Z,93.33
2022-10-04T01:38:15.076Z,93.33
2022-10-04T01:39:15.188Z,93.13
2022-10-04T01:40:15.321Z,93.44
2022-10-04T01:41:15.497Z,93.13
2022-10-04T01:42:15.592Z,92.72
2022-10-04T01:43:15.749Z,93.24
2022-10-04T01:44:15.880Z,93.24
2022-10-04T01:45:16.008Z,93.24
2022-10-04T01:46:16.203Z,92.46
2022-10-04T01:47:16.318Z,93.48
2022-10-04T01:48:16.451Z,92.67
2022-10-04T01:49:16.587Z,93.13
2022-10-04T01:50:16.724Z,93.18
2022-10-04T01:51:16.900Z,92.77
2022-10-04T01:52:17.196Z,92.77
2022-10-04T01:53:17.154Z,92.97
2022-10-04T01:54:17.294Z,92.97
2022-10-04T01:55:17.443Z,92.87
2022-10-04T01:56:17.592Z,92.46
2022-10-04T01:57:17.851Z,92.97
2022-10-04T01:58:17.877Z,93.24
2022-10-04T01:59:18.024Z,93.18
2022-10-04T02:00:18.160Z,92.67
2022-10-04T02:01:18.412Z,93.18
2022-10-04T02:02:18.625Z,93.18
2022-10-04T02:03:18.619Z,92.97
2022-10-04T02:04:22.304Z,92.87
2022-10-04T02:05:18.927Z,92.57
2022-10-04T02:06:19.339Z,92.67
2022-10-04T02:07:19.203Z,93.28
2022-10-04T02:08:19.355Z,93.28
2022-10-04T02:09:19.508Z,93.28
2022-10-04T02:10:19.651Z,93.18
2022-10-04T02:11:19.884Z,93.07
2022-10-04T02:12:19.966Z,93.38
2022-10-04T02:13:20.098Z,92.67
2022-10-04T02:14:20.249Z,92.67
2022-10-04T02:15:20.398Z,92.87
2022-10-04T02:16:20.808Z,93.07
2022-10-04T02:17:20.711Z,92.97
2022-10-04T02:18:20.893Z,92.97
2022-10-04T02:19:21.023Z,93.48
2022-10-04T02:20:21.165Z,93.79
2022-10-04T02:21:21.366Z,93.69
2022-10-04T02:22:21.456Z,93.69
2022-10-04T02:23:21.615Z,93.79
2022-10-04T02:24:21.792Z,93.69
2022-10-04T02:25:21.913Z,93.48
2022-10-04T02:26:22.067Z,93.64
2022-10-04T02:27:22.251Z,93.69
2022-10-04T02:28:22.465Z,93.48
2022-10-04T02:29:22.678Z,94.09
2022-10-04T02:30:22.668Z,93.48
2022-10-04T02:31:22.941Z,93.69
2022-10-04T02:32:22.991Z,94.20
2022-10-04T02:33:23.195Z,94.30
2022-10-04T02:34:23.413Z,94.81
2022-10-04T02:35:23.523Z,94.91
2022-10-04T02:36:23.689Z,94.50
2022-10-04T02:37:23.857Z,94.71
2022-10-04T02:38:24.028Z,94.66
2022-10-04T02:39:24.482Z,94.71
2022-10-04T02:40:24.374Z,94.20
2022-10-04T02:41:24.554Z,94.60
2022-10-04T02:42:24.730Z,94.81
2022-10-04T02:43:24.912Z,94.46
2022-10-04T02:44:25.121Z,94.60
2022-10-04T02:45:25.353Z,94.46
2022-10-04T02:46:25.546Z,94.71
2022-10-04T02:47:25.629Z,94.66
2022-10-04T02:48:25.833Z,94.66
2022-10-04T02:49:25.999Z,94.35
2022-10-04T02:50:26.302Z,93.99
2022-10-04T02:51:26.365Z,94.05
2022-10-04T02:52:26.545Z,95.17
2022-10-04T02:53:26.728Z,93.95
2022-10-04T02:54:26.937Z,94.60
2022-10-04T02:55:27.150Z,94.60
2022-10-04T02:56:27.291Z,94.20
2022-10-04T02:57:27.466Z,94.09
2022-10-04T02:58:27.654Z,94.60
2022-10-04T02:59:27.835Z,94.46
2022-10-04T03:00:28.111Z,94.81
2022-10-04T03:01:28.251Z,94.60
2022-10-04T03:02:29.969Z,94.71
2022-10-04T03:03:28.552Z,94.60
2022-10-04T03:04:28.701Z,94.26
2022-10-04T03:05:28.967Z,94.50
2022-10-04T03:06:29.045Z,94.71
2022-10-04T03:07:29.224Z,94.66
2022-10-04T03:08:29.380Z,94.46
2022-10-04T03:09:30.127Z,94.35
2022-10-04T03:10:29.817Z,94.71
2022-10-04T03:11:29.854Z,94.60
2022-10-04T03:12:30.021Z,94.50
2022-10-04T03:13:30.172Z,94.40
2022-10-04T03:14:30.312Z,94.50
2022-10-04T03:15:30.676Z,95.21
2022-10-04T03:16:30.674Z,95.12
2022-10-04T03:17:30.715Z,95.01
2022-10-04T03:18:30.845Z,95.12
2022-10-04T03:19:31.021Z,94.91
2022-10-04T03:20:31.431Z,94.91
2022-10-04T03:21:31.286Z,94.81
2022-10-04T03:22:31.436Z,95.01
2022-10-04T03:23:31.585Z,94.91
2022-10-04T03:24:31.736Z,94.91
2022-10-04T03:25:32.071Z,94.91
2022-10-04T03:26:32.018Z,95.01
2022-10-04T03:27:32.167Z,94.91
2022-10-04T03:28:32.441Z,94.81
2022-10-04T03:29:32.470Z,95.01
2022-10-04T03:30:32.823Z,94.71
2022-10-04T03:31:32.816Z,94.81
2022-10-04T03:32:32.927Z,95.01
2022-10-04T03:33:33.077Z,94.71
2022-10-04T03:34:33.230Z,94.91
2022-10-04T03:35:33.438Z,95.01
2022-10-04T03:36:33.539Z,94.91
2022-10-04T03:37:33.900Z,95.01
2022-10-04T03:38:33.836Z,95.32
2022-10-04T03:39:33.993Z,95.21
2022-10-04T03:40:34.136Z,95.07
2022-10-04T03:41:34.303Z,95.21
2022-10-04T03:42:34.506Z,95.01
2022-10-04T03:43:34.628Z,94.35
2022-10-04T03:44:34.808Z,95.12
2022-10-04T03:45:35.019Z,95.12
2022-10-04T03:46:35.135Z,95.01
2022-10-04T03:47:35.404Z,95.01
2022-10-04T03:48:35.476Z,95.12
2022-10-04T03:49:35.642Z,95.12
2022-10-04T03:50:35.959Z,95.01
2022-10-04T03:51:35.994Z,94.91
2022-10-04T03:52:36.258Z,94.60
2022-10-04T03:53:36.342Z,94.40
2022-10-04T03:54:36.515Z,94.09
2022-10-04T03:55:36.682Z,94.60
2022-10-04T03:56:36.854Z,93.99
2022-10-04T03:57:37.062Z,93.79
2022-10-04T03:58:37.201Z,94.60
2022-10-04T03:59:37.383Z,93.89
2022-10-04T04:00:37.562Z,94.20
2022-10-04T04:01:37.984Z,94.40
2022-10-04T04:02:40.396Z,94.60
2022-10-04T04:03:38.014Z,94.81
2022-10-04T04:04:38.172Z,94.30
2022-10-04T04:05:38.353Z,94.20
2022-10-04T04:06:38.554Z,94.40
2022-10-04T04:07:38.663Z,94.60
2022-10-04T04:08:38.820Z,93.79
2022-10-04T04:09:38.971Z,93.89
2022-10-04T04:10:39.108Z,95.21
2022-10-04T04:11:39.475Z,95.12
2022-10-04T04:12:39.401Z,94.71
2022-10-04T04:13:39.554Z,95.01
2022-10-04T04:14:39.741Z,95.01
2022-10-04T04:15:39.871Z,94.91
2022-10-04T04:16:40.129Z,94.81
2022-10-04T04:17:40.229Z,95.01
2022-10-04T04:18:40.439Z,94.81
2022-10-04T04:19:40.583Z,95.21
2022-10-04T04:20:40.783Z,94.91
2022-10-04T04:21:41.408Z,94.91
2022-10-04T04:22:41.120Z,95.12
2022-10-04T04:23:41.270Z,95.01
2022-10-04T04:24:41.416Z,94.91
2022-10-04T04:25:41.563Z,95.01
2022-10-04T04:26:41.745Z,94.81
2022-10-04T04:27:41.861Z,95.01
2022-10-04T04:28:42.043Z,94.81
2022-10-04T04:29:42.160Z,94.91
2022-10-04T04:30:42.318Z,94.81
2022-10-04T04:31:42.877Z,95.01
2022-10-04T04:32:42.639Z,95.01
2022-10-04T04:33:42.810Z,94.81
2022-10-04T04:34:42.960Z,94.91
2022-10-04T04:35:43.139Z,95.01
2022-10-04T04:36:43.425Z,94.91
2022-10-04T04:37:43.420Z,95.01
2022-10-04T04:38:43.572Z,94.71
2022-10-04T04:39:43.723Z,94.91
2022-10-04T04:40:43.882Z,95.12
2022-10-04T04:41:49.525Z,95.21
2022-10-04T04:42:44.282Z,95.01
2022-10-04T04:43:44.344Z,95.12
2022-10-04T04:44:44.502Z,95.12
2022-10-04T04:45:44.705Z,94.91
2022-10-04T04:46:44.882Z,95.01
2022-10-04T04:47:45.013Z,95.12
2022-10-04T04:48:45.143Z,94.50
2022-10-04T04:49:45.300Z,94.40
2022-10-04T04:50:45.501Z,94.20
2022-10-04T04:51:45.780Z,94.81
2022-10-04T04:52:45.772Z,94.71
2022-10-04T04:53:45.931Z,94.60
2022-10-04T04:54:46.111Z,94.60
2022-10-04T04:56:05.266Z,94.60
2022-10-04T04:56:46.491Z,94.60
2022-10-04T04:57:46.626Z,94.60
2022-10-04T04:58:46.804Z,94.30
2022-10-04T04:59:47.067Z,94.40
2022-10-04T05:00:47.211Z,94.71
2022-10-04T05:01:47.365Z,94.40
2022-10-04T05:02:47.470Z,94.60
2022-10-04T05:03:47.629Z,94.71
2022-10-04T05:04:47.828Z,94.50
2022-10-04T05:05:47.973Z,94.71
2022-10-04T05:06:48.109Z,94.60
2022-10-04T05:07:48.280Z,94.71
2022-10-04T05:08:48.448Z,94.50
2022-10-04T05:09:48.768Z,94.71
2022-10-04T05:10:48.795Z,94.50
2022-10-04T05:11:48.975Z,94.85
2022-10-04T05:12:49.157Z,94.85
2022-10-04T05:13:49.331Z,94.55
2022-10-04T05:14:49.498Z,94.04
2022-10-04T05:15:49.646Z,94.40
2022-10-04T05:16:49.885Z,94.60
2022-10-04T05:17:50.261Z,94.09
2022-10-04T05:18:50.181Z,94.40
2022-10-04T05:19:50.350Z,94.55
2022-10-04T05:20:50.546Z,94.75
2022-10-04T05:21:50.695Z,94.75
2022-10-04T05:22:51.116Z,94.45
2022-10-04T05:23:51.050Z,94.45
2022-10-04T05:24:51.213Z,94.55
2022-10-04T05:25:51.366Z,94.71
2022-10-04T05:26:51.508Z,94.65
2022-10-04T05:27:51.737Z,94.75
2022-10-04T05:28:51.982Z,94.50
2022-10-04T05:29:51.953Z,94.45
2022-10-04T05:30:52.105Z,94.55
2022-10-04T05:31:52.325Z,95.16
2022-10-04T05:32:52.387Z,95.21
2022-10-04T05:33:52.602Z,95.26
2022-10-04T05:34:52.681Z,94.91
2022-10-04T05:35:52.844Z,94.85
2022-10-04T05:36:52.962Z,95.01
2022-10-04T05:37:53.095Z,94.85
2022-10-04T05:38:53.483Z,95.01
2022-10-04T05:39:53.392Z,94.85
2022-10-04T05:40:53.582Z,94.91
2022-10-04T05:41:53.678Z,94.91
2022-10-04T05:42:53.798Z,95.12
2022-10-04T05:43:53.978Z,95.01
2022-10-04T05:44:54.110Z,95.12
2022-10-04T05:45:54.320Z,94.45
2022-10-04T05:46:54.424Z,95.16
2022-10-04T05:47:54.666Z,94.75
2022-10-04T05:48:54.739Z,94.75
2022-10-04T05:49:54.908Z,95.26
2022-10-04T05:50:55.082Z,95.16
2022-10-04T05:51:55.285Z,95.12
2022-10-04T05:52:55.459Z,95.01
2022-10-04T05:53:55.585Z,94.71
2022-10-04T05:54:55.948Z,94.14
2022-10-04T05:55:55.925Z,94.95
2022-10-04T05:56:56.091Z,95.16
2022-10-04T05:57:56.255Z,94.24
2022-10-04T05:58:56.426Z,94.34
2022-10-04T06:00:00.528Z,94.50
2022-10-04T06:00:56.865Z,94.65
2022-10-04T06:01:57.106Z,94.75
2022-10-04T06:02:57.248Z,94.75
2022-10-04T06:03:57.307Z,94.75
2022-10-04T06:04:57.540Z,94.75
2022-10-04T06:05:57.658Z,94.65
2022-10-04T06:06:57.859Z,94.75
2022-10-04T06:07:58.016Z,94.71
2022-10-04T06:08:58.189Z,94.45
2022-10-04T06:09:58.428Z,95.16
2022-10-04T06:10:58.551Z,95.12
2022-10-04T06:11:58.728Z,95.12
2022-10-04T06:12:58.904Z,95.21
2022-10-04T06:13:59.082Z,95.21
2022-10-04T06:14:59.295Z,95.21
2022-10-04T06:15:59.435Z,95.12
2022-10-04T06:16:59.660Z,95.12
2022-10-04T06:17:59.774Z,95.01
2022-10-04T06:18:59.930Z,95.12
2022-10-04T06:20:00.120Z,95.12
2022-10-04T06:21:00.268Z,95.21
2022-10-04T06:22:00.412Z,95.21
2022-10-04T06:23:00.522Z,95.21
2022-10-04T06:24:00.674Z,95.01
2022-10-04T06:25:00.822Z,95.01
2022-10-04T06:26:01.013Z,95.21
2022-10-04T06:27:01.121Z,95.12
2022-10-04T06:28:01.324Z,95.21
2022-10-04T06:29:01.431Z,95.12
2022-10-04T06:30:01.591Z,95.21
2022-10-04T06:31:02.127Z,95.17
2022-10-04T06:32:01.889Z,94.97
2022-10-04T06:33:02.036Z,94.97
2022-10-04T06:34:02.177Z,95.07
2022-10-04T06:35:02.346Z,95.17
2022-10-04T06:36:02.505Z,95.07
2022-10-04T06:37:02.825Z,94.97
2022-10-04T06:38:02.782Z,95.17
2022-10-04T06:39:04.380Z,95.17
2022-10-04T06:40:03.108Z,94.42
2022-10-04T06:41:03.270Z,94.42
2022-10-04T06:42:03.496Z,93.80
2022-10-04T06:43:03.597Z,94.31
2022-10-04T06:44:03.758Z,94.31
2022-10-04T06:45:03.914Z,94.42
2022-10-04T06:46:04.151Z,94.52
2022-10-04T06:47:04.266Z,94.62
2022-10-04T06:48:04.432Z,94.42
2022-10-04T06:49:04.556Z,95.13
2022-10-04T06:50:04.720Z,94.92
2022-10-04T06:51:04.878Z,95.03
2022-10-04T06:52:05.028Z,94.52
2022-10-04T06:53:05.214Z,95.03
2022-10-04T06:54:05.333Z,95.03
2022-10-04T06:55:05.445Z,94.88
2022-10-04T06:56:05.605Z,94.37
2022-10-04T06:57:05.723Z,94.57
2022-10-04T06:58:05.891Z,94.37
2022-10-04T06:59:06.032Z,94.27
2022-10-04T07:00:06.129Z,94.27
2022-10-04T07:01:06.287Z,94.12
2022-10-04T07:02:06.457Z,94.32
2022-10-04T07:03:06.528Z,94.12
2022-10-04T07:04:06.691Z,93.31
2022-10-04T07:05:09.205Z,93.82
2022-10-04T07:06:06.933Z,93.41
2022-10-04T07:07:07.074Z,94.63
2022-10-04T07:08:07.216Z,94.32
2022-10-04T07:09:07.459Z,94.63
2022-10-04T07:10:07.532Z,94.02
2022-10-04T07:11:12.132Z,94.53
2022-10-04T07:12:07.851Z,94.63
2022-10-04T07:13:08.009Z,94.93
2022-10-04T07:14:08.545Z,94.84
2022-10-04T07:15:08.299Z,94.43
2022-10-04T07:16:08.498Z,94.53
2022-10-04T07:17:08.602Z,94.32
2022-10-04T07:18:08.729Z,93.71
2022-10-04T07:19:08.896Z,93.71
2022-10-04T07:20:09.005Z,94.43
2022-10-04T07:21:09.183Z,93.82
2022-10-04T07:22:09.328Z,93.82
2022-10-04T07:23:09.441Z,94.47
2022-10-04T07:24:09.725Z,94.43
2022-10-04T07:25:09.731Z,94.43
2022-10-04T07:26:09.905Z,94.43
2022-10-04T07:27:10.038Z,94.07
2022-10-04T07:28:10.255Z,94.43
2022-10-04T07:29:10.278Z,94.32
2022-10-04T07:30:10.423Z,94.93
2022-10-04T07:31:10.627Z,95.04
2022-10-04T07:32:10.716Z,94.84
2022-10-04T07:33:10.821Z,94.93
2022-10-04T07:34:10.956Z,94.63
2022-10-04T07:35:11.084Z,94.63
2022-10-04T07:36:11.220Z,94.79
2022-10-04T07:37:11.374Z,94.69
2022-10-04T07:38:11.481Z,94.59
2022-10-04T07:39:11.646Z,94.69
2022-10-04T07:40:11.760Z,94.59
2022-10-04T07:41:11.888Z,94.89
2022-10-04T07:42:12.054Z,94.69
2022-10-04T07:43:12.170Z,94.95
2022-10-04T07:44:12.267Z,94.89
2022-10-04T07:45:12.418Z,94.89
2022-10-04T07:46:12.635Z,94.85
2022-10-04T07:47:12.653Z,94.54
2022-10-04T07:48:12.810Z,94.74
2022-10-04T07:49:12.901Z,94.85
2022-10-04T07:50:13.065Z,94.85
2022-10-04T07:51:13.160Z,94.90
2022-10-04T07:52:13.279Z,94.64
2022-10-04T07:53:13.401Z,93.63
2022-10-04T07:54:13.524Z,94.80
2022-10-04T07:55:13.715Z,93.79
2022-10-04T07:56:13.770Z,94.20
2022-10-04T07:57:13.904Z,93.99
2022-10-04T07:58:14.042Z,94.29
2022-10-04T07:59:14.195Z,93.68
2022-10-04T08:00:14.365Z,94.09
2022-10-04T08:01:14.489Z,94.09
2022-10-04T08:02:14.790Z,94.29
2022-10-04T08:03:14.805Z,94.76
2022-10-04T08:04:14.897Z,93.68
2022-10-04T08:05:15.080Z,94.45
2022-10-04T08:06:15.296Z,94.25
2022-10-04T08:07:15.369Z,94.86
2022-10-04T08:08:15.534Z,94.71
2022-10-04T08:09:15.694Z,94.00
2022-10-04T08:10:15.898Z,94.41
2022-10-04T08:11:16.369Z,93.90
2022-10-04T08:12:16.154Z,93.80
2022-10-04T08:13:16.311Z,93.60
2022-10-04T08:14:16.452Z,93.29
2022-10-04T08:15:16.677Z,93.25
2022-10-04T08:16:16.829Z,92.44
2022-10-04T08:17:16.858Z,92.84
2022-10-04T08:18:16.988Z,93.35
2022-10-04T08:19:17.130Z,93.76
2022-10-04T08:20:17.429Z,93.76
2022-10-04T08:21:17.386Z,93.61
2022-10-04T08:22:17.518Z,93.61
2022-10-04T08:23:17.648Z,93.61
2022-10-04T08:24:17.777Z,93.10
2022-10-04T08:25:18.079Z,93.16
2022-10-04T08:26:18.063Z,92.55
2022-10-04T08:27:18.168Z,91.94
2022-10-04T08:28:18.373Z,92.14
2022-10-04T08:29:18.424Z,91.13
2022-10-04T08:30:18.589Z,91.13
2022-10-04T08:31:18.759Z,92.14
2022-10-04T08:32:18.805Z,92.05
2022-10-04T08:33:18.983Z,92.55
2022-10-04T08:34:19.098Z,92.55
2022-10-04T08:35:19.379Z,90.83
2022-10-04T08:36:19.354Z,91.30
2022-10-04T08:37:19.485Z,90.99
2022-10-04T08:38:19.624Z,90.99
2022-10-04T08:39:19.743Z,91.24
2022-10-04T08:40:20.024Z,90.38
2022-10-04T08:41:20.034Z,90.38
2022-10-04T08:42:20.129Z,90.18
2022-10-04T08:43:20.252Z,89.92
2022-10-04T08:44:20.378Z,90.42
2022-10-04T08:45:20.679Z,90.02
2022-10-04T08:46:20.698Z,90.02
2022-10-04T08:47:22.129Z,90.83
2022-10-04T08:48:20.872Z,91.03
2022-10-04T08:49:21.005Z,90.42
2022-10-04T08:50:21.167Z,90.42
2022-10-04T08:51:21.259Z,90.53
2022-10-04T08:52:21.393Z,90.93
2022-10-04T08:53:21.522Z,90.73
2022-10-04T08:54:21.653Z,90.67
2022-10-04T08:55:21.812Z,90.42
2022-10-04T08:56:21.951Z,90.67
2022-10-04T08:57:22.082Z,90.63
2022-10-04T08:58:22.189Z,90.93
2022-10-04T08:59:22.324Z,90.53
2022-10-04T09:00:22.535Z,90.63
2022-10-04T09:01:22.679Z,91.24
2022-10-04T09:02:22.779Z,91.34
2022-10-04T09:03:24.873Z,90.63
2022-10-04T09:04:23.012Z,90.38
2022-10-04T09:05:23.169Z,90.89
2022-10-04T09:06:23.296Z,90.89
2022-10-04T09:07:23.384Z,90.89
2022-10-04T09:08:23.502Z,91.66
2022-10-04T09:09:23.614Z,91.80
2022-10-04T09:10:25.258Z,89.73
2022-10-04T09:11:23.896Z,89.53
2022-10-04T09:12:24.034Z,90.14
2022-10-04T09:13:24.315Z,89.63
2022-10-04T09:14:24.350Z,90.44
2022-10-04T09:15:24.463Z,90.60
2022-10-04T09:16:24.722Z,90.84
2022-10-04T09:17:24.696Z,89.59
2022-10-04T09:18:24.837Z,90.50
2022-10-04T09:19:24.915Z,90.30
2022-10-04T09:20:38.461Z,89.99
2022-10-04T09:21:25.175Z,89.59
2022-10-04T09:22:25.267Z,89.39
2022-10-04T09:23:25.390Z,89.95
2022-10-04T09:24:25.550Z,89.65
2022-10-04T09:25:25.698Z,89.45
2022-10-04T09:26:25.883Z,90.25
2022-10-04T09:27:53.097Z,89.24
2022-10-04T09:28:26.187Z,89.81
2022-10-04T09:29:26.306Z,88.94
2022-10-04T09:30:26.394Z,88.79
2022-10-04T09:31:26.633Z,88.79
2022-10-04T09:32:26.630Z,87.48
2022-10-04T09:33:26.747Z,87.68
2022-10-04T09:34:26.861Z,88.19
2022-10-04T09:35:26.970Z,87.79
2022-10-04T09:36:27.274Z,87.48
2022-10-04T09:37:27.255Z,87.18
2022-10-04T09:38:27.392Z,87.38
2022-10-04T09:39:31.242Z,87.48
2022-10-04T09:40:27.685Z,87.58
2022-10-04T09:41:27.862Z,87.79
2022-10-04T09:42:28.011Z,86.57
2022-10-04T09:43:28.101Z,85.96
2022-10-04T09:44:28.311Z,86.67
2022-10-04T09:45:28.380Z,87.38
2022-10-04T09:46:28.668Z,86.77
2022-10-04T09:47:28.656Z,87.28
2022-10-04T09:48:28.826Z,86.87
2022-10-04T09:49:28.913Z,86.27
2022-10-04T09:50:29.038Z,86.16
2022-10-04T09:51:29.162Z,87.44
2022-10-04T09:52:29.276Z,87.64
2022-10-04T09:53:29.415Z,87.24
2022-10-04T09:54:29.522Z,86.83
2022-10-04T09:55:29.601Z,87.64
2022-10-04T09:56:29.718Z,87.84
2022-10-04T09:57:29.883Z,86.33
2022-10-04T09:58:29.968Z,86.33
2022-10-04T09:59:30.128Z,85.42
2022-10-04T10:00:30.164Z,85.31
2022-10-04T10:01:30.289Z,86.22
2022-10-04T10:02:30.439Z,85.72
2022-10-04T10:03:30.479Z,85.82
2022-10-04T10:04:30.637Z,85.52
2022-10-04T10:05:30.738Z,84.31
2022-10-04T10:06:30.836Z,85.22
2022-10-04T10:07:30.953Z,85.11
2022-10-04T10:08:31.046Z,85.93
2022-10-04T10:09:31.394Z,85.42
2022-10-04T10:10:31.263Z,85.02
2022-10-04T10:11:31.378Z,85.28
2022-10-04T10:12:31.482Z,86.13
2022-10-04T10:13:32.236Z,85.78
2022-10-04T10:14:31.730Z,86.29
2022-10-04T10:15:31.914Z,85.68
2022-10-04T10:16:31.947Z,85.78
2022-10-04T10:17:32.060Z,85.28
2022-10-04T10:18:32.220Z,85.38
2022-10-04T10:19:32.255Z,85.38
2022-10-04T10:20:32.376Z,85.38
2022-10-04T10:21:32.571Z,85.28
2022-10-04T10:22:32.584Z,85.38
2022-10-04T10:23:32.699Z,85.28
2022-10-04T10:24:32.819Z,85.48
2022-10-04T10:25:32.935Z,84.37
2022-10-04T10:26:33.065Z,84.06
2022-10-04T10:27:33.257Z,83.86
2022-10-04T10:28:33.308Z,83.86
2022-10-04T10:29:33.403Z,83.66
2022-10-04T10:30:33.545Z,83.56
2022-10-04T10:31:33.780Z,83.66
2022-10-04T10:32:33.855Z,82.55
2022-10-04T10:33:33.967Z,83.15
2022-10-04T10:34:34.337Z,83.46
2022-10-04T10:35:34.245Z,83.46
2022-10-04T10:36:34.378Z,83.46
2022-10-04T10:37:34.525Z,83.92
2022-10-04T10:38:34.642Z,83.01
2022-10-04T10:39:34.793Z,83.62
2022-10-04T10:40:34.892Z,83.52
2022-10-04T10:41:35.034Z,83.12
2022-10-04T10:42:35.414Z,80.99
2022-10-04T10:43:35.309Z,81.80
2022-10-04T10:44:35.434Z,80.79
2022-10-04T10:45:35.559Z,80.99
2022-10-04T10:46:35.804Z,78.77
2022-10-04T10:47:35.901Z,79.48
2022-10-04T10:48:35.931Z,80.29
2022-10-04T10:49:36.044Z,79.58
2022-10-04T10:50:36.163Z,79.88
2022-10-04T10:51:36.285Z,80.69
2022-10-04T10:52:36.426Z,80.59
2022-10-04T10:53:36.479Z,80.49
2022-10-04T10:54:36.576Z,79.85
2022-10-04T10:55:36.670Z,79.94
2022-10-04T10:56:36.762Z,80.76
2022-10-04T10:57:36.886Z,80.76
2022-10-04T10:58:36.966Z,80.25
2022-10-04T10:59:37.099Z,81.46
2022-10-04T11:00:37.235Z,80.65
2022-10-04T11:01:37.442Z,79.74
2022-10-04T11:02:49.533Z,78.94
2022-10-04T11:03:37.760Z,78.53
2022-10-04T11:04:37.754Z,78.94
2022-10-04T11:05:37.883Z,79.44
2022-10-04T11:06:38.010Z,79.24
2022-10-04T11:07:38.172Z,79.14
2022-10-04T11:08:38.271Z,79.44
2022-10-04T11:09:38.407Z,79.54
2022-10-04T11:10:38.531Z,79.64
2022-10-04T11:11:38.652Z,79.54
2022-10-04T11:12:38.810Z,79.00
2022-10-04T11:13:38.955Z,79.85
2022-10-04T11:14:38.991Z,79.94
2022-10-04T11:15:39.182Z,79.21
2022-10-04T11:16:39.212Z,79.64
2022-10-04T11:17:39.351Z,79.71
2022-10-04T11:18:39.433Z,80.25
2022-10-04T11:19:39.568Z,81.16
2022-10-04T11:20:39.665Z,81.12
2022-10-04T11:21:39.746Z,81.36
2022-10-04T11:22:39.882Z,80.11
2022-10-04T11:23:39.959Z,79.91
2022-10-04T11:24:40.073Z,79.61
2022-10-04T11:25:40.178Z,80.01
2022-10-04T11:26:40.282Z,80.41
2022-10-04T11:27:40.421Z,80.51
2022-10-04T11:28:40.533Z,79.81
2022-10-04T11:29:40.582Z,78.90
2022-10-04T11:30:40.725Z,78.59
2022-10-04T11:31:41.143Z,78.90
2022-10-04T11:32:40.939Z,78.90
2022-10-04T11:33:41.040Z,78.50
2022-10-04T11:34:41.171Z,78.59
2022-10-04T11:35:41.237Z,79.10
2022-10-04T11:36:41.375Z,80.11
2022-10-04T11:37:41.459Z,80.01
2022-10-04T11:38:41.618Z,79.50
2022-10-04T11:39:44.504Z,78.50
2022-10-04T11:40:41.835Z,77.99
2022-10-04T11:41:41.957Z,77.99
2022-10-04T11:42:42.061Z,78.70
2022-10-04T11:43:42.391Z,78.59
2022-10-04T11:44:42.267Z,77.89
2022-10-04T11:45:42.364Z,78.19
2022-10-04T11:46:43.049Z,78.19
2022-10-04T11:47:42.565Z,78.39
2022-10-04T11:48:42.702Z,78.39
2022-10-04T11:49:42.776Z,78.70
2022-10-04T11:50:42.915Z,78.59
2022-10-04T11:51:43.006Z,79.27
2022-10-04T11:52:43.134Z,79.06
2022-10-04T11:53:43.208Z,79.77
2022-10-04T11:54:43.350Z,78.56
2022-10-04T11:55:43.434Z,78.36
2022-10-04T11:56:43.967Z,78.36
2022-10-04T11:57:43.681Z,77.45
2022-10-04T11:58:43.795Z,78.06
2022-10-04T11:59:44.033Z,77.86
2022-10-04T12:00:44.036Z,77.86
2022-10-04T12:01:44.154Z,76.84
2022-10-04T12:02:44.335Z,77.75
2022-10-04T12:03:44.559Z,78.39
2022-10-04T12:04:44.655Z,78.66
2022-10-04T12:05:44.624Z,78.76
2022-10-04T12:06:45.073Z,79.27
2022-10-04T12:07:44.914Z,78.66
2022-10-04T12:08:44.998Z,78.36
2022-10-04T12:09:45.127Z,78.46
2022-10-04T12:10:45.291Z,78.76
2022-10-04T12:11:45.379Z,78.36
2022-10-04T12:12:45.538Z,79.77
2022-10-04T12:13:45.629Z,78.56
2022-10-04T12:14:45.750Z,78.76
2022-10-04T12:15:45.891Z,78.32
2022-10-04T12:16:46.252Z,78.36
2022-10-04T12:17:46.087Z,78.36
2022-10-04T12:18:46.201Z,79.36
2022-10-04T12:19:46.347Z,79.83
2022-10-04T12:20:46.486Z,79.36
2022-10-04T12:21:46.577Z,79.33
2022-10-04T12:22:46.813Z,79.83
2022-10-04T12:23:46.812Z,80.84
2022-10-04T12:24:46.953Z,80.84
2022-10-04T12:25:47.099Z,78.72
2022-10-04T12:26:47.920Z,78.42
2022-10-04T12:27:47.474Z,78.42
2022-10-04T12:28:47.504Z,77.82
2022-10-04T12:29:47.633Z,78.12
2022-10-04T12:30:47.782Z,78.32
2022-10-04T12:31:47.996Z,78.22
2022-10-04T12:32:48.078Z,78.22
2022-10-04T12:33:48.176Z,78.26
2022-10-04T12:34:48.319Z,78.32
2022-10-04T12:35:48.420Z,78.12
2022-10-04T12:36:48.876Z,78.42
2022-10-04T12:37:48.875Z,78.72
2022-10-04T12:38:48.763Z,75.70
2022-10-04T12:39:48.838Z,77.11
2022-10-04T12:40:48.945Z,77.82
2022-10-04T12:41:49.062Z,76.91
2022-10-04T12:42:49.199Z,76.75
2022-10-04T12:43:49.264Z,78.32
2022-10-04T12:44:49.367Z,79.03
2022-10-04T12:45:49.535Z,78.42
2022-10-04T12:46:49.619Z,78.02
2022-10-04T12:47:49.735Z,78.32
2022-10-04T12:48:49.807Z,78.32
2022-10-04T12:49:49.904Z,77.72
2022-10-04T12:50:50.003Z,76.91
2022-10-04T12:51:50.120Z,76.91
2022-10-04T12:52:50.339Z,77.21
2022-10-04T12:53:50.338Z,77.21
2022-10-04T12:54:50.463Z,78.36